Time;durP1;ratioP1;P1;durP2;ratioP2;P2;SDS_P1;SDS_P2;PMS_P1;PMS_P2;Temp;Humidity;BMP_temperature;BMP_pressure;BME280_temperature;BME280_humidity;BME280_pressure;Samples;Min_cycle;Max_cycle;Signal;HPM_P1;HPM_P2
2022/04/17 00:02:00;;;;;;;1.67;1.57;;;16.60;66.30;;;;;;5051805;28;20467;-72
2022/04/17 00:04:29;;;;;;;1.53;1.43;;;16.60;66.20;;;;;;5044917;28;21038;-73
2022/04/17 00:06:57;;;;;;;1.90;1.80;;;16.60;66.10;;;;;;5042147;28;20467;-73
2022/04/17 00:09:28;;;;;;;1.87;1.50;;;16.60;66.00;;;;;;5025748;28;20475;-73
2022/04/17 00:11:56;;;;;;;1.43;1.30;;;16.60;66.30;;;;;;5028392;28;20467;-73
2022/04/17 00:14:24;;;;;;;1.67;1.57;;;16.60;66.40;;;;;;5031671;28;20470;-73
2022/04/17 00:16:54;;;;;;;1.70;1.60;;;16.60;66.50;;;;;;5039078;28;21054;-73
2022/04/17 00:19:24;;;;;;;1.50;1.40;;;16.60;66.10;;;;;;5032594;28;20498;-73
2022/04/17 00:21:52;;;;;;;1.83;1.70;;;16.60;66.30;;;;;;5031420;28;20468;-73
2022/04/17 00:24:20;;;;;;;1.50;1.30;;;16.60;66.80;;;;;;5023048;28;20468;-73
2022/04/17 00:26:54;;;;;;;1.70;1.60;;;16.60;66.30;;;;;;5039838;28;20902;-73
2022/04/17 00:29:23;;;;;;;1.60;1.50;;;16.60;66.40;;;;;;5040478;28;20475;-73
2022/04/17 00:31:51;;;;;;;1.87;1.53;;;16.50;65.90;;;;;;5031421;28;20471;-73
2022/04/17 00:34:20;;;;;;;2.03;1.80;;;16.50;65.90;;;;;;5036292;28;20502;-73
2022/04/17 00:36:49;;;;;;;1.70;1.30;;;16.50;66.10;;;;;;5051413;28;20512;-73
2022/04/17 00:39:17;;;;;;;1.63;1.53;;;16.60;66.20;;;;;;5041086;28;20452;-72
2022/04/17 00:41:47;;;;;;;1.43;1.33;;;16.50;65.90;;;;;;5031296;28;20452;-74
2022/04/17 00:44:15;;;;;;;1.40;1.23;;;16.60;66.10;;;;;;5031945;28;20511;-73
2022/04/17 00:46:44;;;;;;;1.70;1.60;;;16.50;65.90;;;;;;5031267;28;20623;-73
2022/04/17 00:49:13;;;;;;;1.43;1.30;;;16.50;66.40;;;;;;5057066;28;20483;-73
2022/04/17 00:51:43;;;;;;;1.73;1.53;;;16.50;66.40;;;;;;5031093;28;20456;-73
2022/04/17 00:54:14;;;;;;;2.00;1.80;;;16.50;66.30;;;;;;5023115;28;20461;-72
2022/04/17 00:56:43;;;;;;;1.50;1.40;;;16.50;66.40;;;;;;5037414;28;20465;-73
2022/04/17 00:59:11;;;;;;;2.53;1.80;;;16.50;66.30;;;;;;5040941;28;20939;-73
2022/04/17 01:01:39;;;;;;;1.53;1.43;;;16.50;66.30;;;;;;5040666;28;20526;-73
2022/04/17 01:04:08;;;;;;;1.60;1.50;;;16.50;66.60;;;;;;5011397;28;20445;-73
2022/04/17 01:06:39;;;;;;;1.70;1.30;;;16.50;66.30;;;;;;5023602;28;20471;-72
2022/04/17 01:09:09;;;;;;;1.60;1.50;;;16.50;66.30;;;;;;5035750;28;20441;-73
2022/04/17 01:11:41;;;;;;;1.50;1.40;;;16.50;66.30;;;;;;5027272;28;20463;-73
2022/04/17 01:14:12;;;;;;;1.30;1.20;;;16.50;66.40;;;;;;5031172;28;20506;-72
2022/04/17 01:16:40;;;;;;;2.17;1.70;;;16.50;66.30;;;;;;5031247;28;20512;-73
2022/04/17 01:19:12;;;;;;;1.50;1.40;;;16.50;66.80;;;;;;5043422;28;20435;-73
2022/04/17 01:21:43;;;;;;;2.30;1.60;;;16.40;67.60;;;;;;5054577;28;20470;-72
2022/04/17 01:27:01;;;;;;;1.70;1.60;;;16.50;67.10;;;;;;5014837;28;20510;-73
2022/04/17 01:29:31;;;;;;;1.60;1.40;;;16.40;67.00;;;;;;5038001;28;20520;-73
2022/04/17 01:32:00;;;;;;;1.70;1.60;;;16.40;66.90;;;;;;5049380;28;20469;-74
2022/04/17 01:34:29;;;;;;;1.30;1.20;;;16.40;67.00;;;;;;5027487;28;20869;-73
2022/04/17 01:37:00;;;;;;;1.53;1.43;;;16.40;66.60;;;;;;5033811;28;21040;-73
2022/04/17 01:39:28;;;;;;;1.83;1.40;;;16.40;66.40;;;;;;5026728;28;21007;-72
2022/04/17 01:41:58;;;;;;;1.70;1.60;;;16.40;66.90;;;;;;5014453;28;20519;-72
2022/04/17 01:44:28;;;;;;;1.30;1.20;;;16.40;66.80;;;;;;5038039;28;20526;-73
2022/04/17 01:46:59;;;;;;;1.80;1.40;;;16.40;66.50;;;;;;5029838;28;20559;-73
2022/04/17 01:49:27;;;;;;;2.10;1.67;;;16.40;66.70;;;;;;5036264;28;20439;-73
2022/04/17 01:51:55;;;;;;;1.77;1.60;;;16.40;66.70;;;;;;5053672;28;20537;-73
2022/04/17 01:54:26;;;;;;;1.70;1.60;;;16.40;66.60;;;;;;5036738;28;20507;-72
2022/04/17 01:56:54;;;;;;;1.90;1.30;;;16.30;67.10;;;;;;5023375;28;20468;-72
2022/04/17 01:59:24;;;;;;;1.93;1.53;;;16.30;66.70;;;;;;5043971;28;20427;-73
2022/04/17 02:01:53;;;;;;;1.70;1.53;;;16.30;67.30;;;;;;5045319;28;20483;-72
2022/04/17 02:04:21;;;;;;;2.07;1.87;;;16.30;66.90;;;;;;5017840;28;20468;-72
2022/04/17 02:06:50;;;;;;;1.60;1.50;;;16.30;67.30;;;;;;5054215;28;20521;-72
2022/04/17 02:09:19;;;;;;;1.80;1.70;;;16.30;66.90;;;;;;5043492;28;20789;-73
2022/04/17 02:11:49;;;;;;;1.57;1.47;;;16.30;66.70;;;;;;5033822;28;20538;-72
2022/04/17 02:14:17;;;;;;;1.60;1.40;;;16.30;66.90;;;;;;5035223;28;20452;-73
2022/04/17 02:16:46;;;;;;;1.70;1.60;;;16.30;66.80;;;;;;5033267;28;20463;-74
2022/04/17 02:19:14;;;;;;;1.30;1.20;;;16.30;67.00;;;;;;5026042;28;20493;-73
2022/04/17 02:21:42;;;;;;;1.67;1.57;;;16.30;66.70;;;;;;5033403;28;20455;-72
2022/04/17 02:24:10;;;;;;;1.70;1.60;;;16.30;66.80;;;;;;5034508;28;20468;-73
2022/04/17 02:26:38;;;;;;;1.67;1.57;;;16.30;67.00;;;;;;5033399;28;20459;-73
2022/04/17 02:29:07;;;;;;;1.53;1.43;;;16.30;66.80;;;;;;5036419;28;20433;-73
2022/04/17 02:31:35;;;;;;;1.60;1.50;;;16.30;67.10;;;;;;5039998;28;20494;-73
2022/04/17 02:34:03;;;;;;;1.40;1.30;;;16.20;66.60;;;;;;5013606;28;20444;-72
2022/04/17 02:36:31;;;;;;;1.63;1.50;;;16.20;66.80;;;;;;5027055;28;20879;-73
2022/04/17 02:39:00;;;;;;;1.50;1.40;;;16.20;66.80;;;;;;5037186;28;20445;-73
2022/04/17 02:41:28;;;;;;;1.60;1.50;;;16.20;66.90;;;;;;5027094;28;20544;-73
2022/04/17 02:43:56;;;;;;;1.30;1.17;;;16.20;66.80;;;;;;5053304;28;20489;-73
2022/04/17 02:49:11;;;;;;;2.03;1.70;;;16.20;67.00;;;;;;5026499;28;20858;-73
2022/04/17 02:51:39;;;;;;;2.33;1.83;;;16.20;66.90;;;;;;5027090;28;20475;-72
2022/04/17 02:54:07;;;;;;;1.90;1.70;;;16.20;67.20;;;;;;5040229;28;20806;-72
2022/04/17 02:56:35;;;;;;;1.57;1.47;;;16.20;67.20;;;;;;5024438;28;20467;-73
2022/04/17 02:59:03;;;;;;;1.60;1.50;;;16.20;68.40;;;;;;5041318;28;21024;-73
2022/04/17 03:07:04;;;;;;;1.37;1.27;;;16.10;68.40;;;;;;5030301;28;20475;-72
2022/04/17 03:09:32;;;;;;;1.70;1.60;;;16.10;66.80;;;;;;5027972;28;20445;-73
2022/04/17 03:12:00;;;;;;;1.70;1.60;;;16.10;67.20;;;;;;5034971;28;20608;-72
2022/04/17 03:14:28;;;;;;;2.03;1.53;;;16.10;67.60;;;;;;5052606;28;20443;-73
2022/04/17 03:16:58;;;;;;;1.80;1.70;;;16.10;67.00;;;;;;5036941;28;20531;-74
2022/04/17 03:19:26;;;;;;;2.10;1.90;;;16.10;67.20;;;;;;5027697;28;20447;-72
2022/04/17 03:21:54;;;;;;;1.87;1.63;;;16.10;67.10;;;;;;5040945;28;20510;-73
2022/04/17 03:24:22;;;;;;;2.30;1.57;;;16.10;67.30;;;;;;5034908;28;21036;-73
2022/04/17 03:26:50;;;;;;;1.67;1.57;;;16.10;67.00;;;;;;5024038;28;20472;-73
2022/04/17 03:29:19;;;;;;;1.50;1.40;;;16.10;66.90;;;;;;5032688;28;20454;-73
2022/04/17 03:31:48;;;;;;;1.87;1.77;;;16.00;67.10;;;;;;5033423;28;20997;-73
2022/04/17 03:34:18;;;;;;;1.60;1.47;;;16.00;66.90;;;;;;5037708;28;20490;-73
2022/04/17 03:36:48;;;;;;;1.77;1.67;;;16.10;67.20;;;;;;5052068;28;20580;-72
2022/04/17 03:39:16;;;;;;;1.33;1.20;;;16.00;67.00;;;;;;5031781;28;20583;-73
2022/04/17 03:41:44;;;;;;;1.83;1.60;;;16.00;67.00;;;;;;5012388;28;20506;-72
2022/04/17 03:44:12;;;;;;;1.40;1.30;;;16.00;67.30;;;;;;5034102;28;21018;-74
2022/04/17 03:46:40;;;;;;;1.37;1.27;;;16.00;67.20;;;;;;5032011;28;20464;-73
2022/04/17 03:49:09;;;;;;;1.77;1.67;;;16.00;67.30;;;;;;5039356;28;20443;-72
2022/04/17 03:51:38;;;;;;;1.60;1.50;;;16.00;67.40;;;;;;5051881;28;20493;-73
2022/04/17 03:54:07;;;;;;;1.40;1.30;;;16.00;67.30;;;;;;5033907;28;20563;-74
2022/04/17 03:56:35;;;;;;;1.47;1.37;;;16.00;67.40;;;;;;5050864;28;20463;-73
2022/04/17 03:59:03;;;;;;;1.40;1.30;;;16.00;67.60;;;;;;5043543;28;20776;-73
2022/04/17 04:01:31;;;;;;;1.80;1.70;;;16.00;67.50;;;;;;5041663;28;20463;-73
2022/04/17 04:03:59;;;;;;;1.70;1.60;;;16.00;67.50;;;;;;5032122;28;20459;-73
2022/04/17 04:06:27;;;;;;;1.40;1.30;;;16.00;67.60;;;;;;5031776;28;20483;-73
2022/04/17 04:08:57;;;;;;;1.80;1.70;;;15.90;67.40;;;;;;5026508;28;20476;-73
2022/04/17 04:11:25;;;;;;;1.93;1.53;;;15.90;67.60;;;;;;5035775;28;20528;-73
2022/04/17 04:13:54;;;;;;;1.97;1.57;;;15.90;67.80;;;;;;5051710;28;20450;-73
2022/04/17 04:16:23;;;;;;;2.10;2.00;;;15.90;67.10;;;;;;5037540;28;20491;-72
2022/04/17 04:18:51;;;;;;;2.63;1.83;;;15.90;65.50;;;;;;5012305;28;20852;-74
2022/04/17 04:21:19;;;;;;;2.30;2.10;;;15.90;65.70;;;;;;5032343;28;20460;-73
2022/04/17 04:23:48;;;;;;;1.60;1.50;;;15.80;66.10;;;;;;5044283;28;20456;-73
2022/04/17 04:26:17;;;;;;;2.10;1.90;;;15.80;66.10;;;;;;5031282;28;20470;-73
2022/04/17 04:28:44;;;;;;;1.50;1.40;;;15.80;65.90;;;;;;5043905;28;20474;-73
2022/04/17 04:31:14;;;;;;;1.40;1.30;;;15.80;67.50;;;;;;5040847;28;20880;-73
2022/04/17 04:33:43;;;;;;;1.50;1.40;;;15.80;67.30;;;;;;5036756;28;20861;-73
2022/04/17 04:36:12;;;;;;;1.60;1.50;;;15.80;67.30;;;;;;5031222;28;20539;-72
2022/04/17 04:38:41;;;;;;;1.50;1.40;;;15.80;67.50;;;;;;5033063;28;20479;-73
2022/04/17 04:41:09;;;;;;;1.60;1.50;;;15.80;67.70;;;;;;5040093;28;20486;-73
2022/04/17 04:43:38;;;;;;;1.77;1.67;;;15.80;67.50;;;;;;5046906;28;20486;-72
2022/04/17 04:46:09;;;;;;;1.50;1.40;;;15.80;67.90;;;;;;5030706;28;20452;-73
2022/04/17 04:51:26;;;;;;;1.60;1.50;;;15.80;67.50;;;;;;5044205;28;20875;-73
2022/04/17 04:53:56;;;;;;;1.60;1.50;;;15.80;67.40;;;;;;5041638;28;20457;-73
2022/04/17 04:56:25;;;;;;;1.80;1.70;;;15.80;67.40;;;;;;5024424;28;20455;-73
2022/04/17 04:58:55;;;;;;;1.73;1.60;;;15.70;67.70;;;;;;5040346;28;20530;-73
2022/04/17 05:01:23;;;;;;;1.57;1.40;;;15.70;66.20;;;;;;5034265;28;20478;-74
2022/04/17 05:03:51;;;;;;;2.00;1.80;;;15.70;65.90;;;;;;5015849;28;20485;-73
2022/04/17 05:06:19;;;;;;;1.90;1.77;;;15.70;65.90;;;;;;5036623;28;20471;-73
2022/04/17 05:08:47;;;;;;;2.03;1.93;;;15.60;65.70;;;;;;5035398;28;20448;-73
2022/04/17 05:11:16;;;;;;;2.20;2.00;;;15.60;65.00;;;;;;5026809;28;20467;-73
2022/04/17 05:13:44;;;;;;;1.50;1.33;;;15.50;64.60;;;;;;5033607;28;20537;-73
2022/04/17 05:16:14;;;;;;;1.50;1.40;;;15.50;65.50;;;;;;5040062;28;20472;-74
2022/04/17 05:18:42;;;;;;;2.83;2.23;;;15.50;65.90;;;;;;5038341;28;20440;-73
2022/04/17 05:21:10;;;;;;;2.03;1.87;;;15.50;63.00;;;;;;5034050;28;20873;-73
2022/04/17 05:23:38;;;;;;;1.50;1.40;;;15.40;64.70;;;;;;5022749;28;20439;-72
2022/04/17 05:26:06;;;;;;;2.17;1.90;;;15.40;65.30;;;;;;5021614;28;20484;-73
2022/04/17 05:28:35;;;;;;;1.90;1.63;;;15.40;64.30;;;;;;5034913;28;20468;-73
2022/04/17 05:31:03;;;;;;;2.30;2.10;;;15.40;64.90;;;;;;5034424;28;20525;-72
2022/04/17 05:33:32;;;;;;;1.83;1.63;;;15.30;65.00;;;;;;5032919;28;20456;-73
2022/04/17 05:36:00;;;;;;;2.63;2.43;;;15.30;63.60;;;;;;5014490;28;20468;-73
2022/04/17 05:38:29;;;;;;;1.90;1.70;;;15.30;64.90;;;;;;5022591;28;20425;-73
2022/04/17 05:40:57;;;;;;;2.47;2.27;;;15.30;65.50;;;;;;5014461;28;20457;-73
2022/04/17 05:43:26;;;;;;;2.37;2.13;;;15.30;65.80;;;;;;5014891;28;20457;-73
2022/04/17 05:45:54;;;;;;;3.50;2.17;;;15.30;62.70;;;;;;5014120;28;20478;-73
2022/04/17 05:48:23;;;;;;;1.87;1.77;;;15.30;64.60;;;;;;5021406;28;20988;-73
2022/04/17 05:50:53;;;;;;;2.20;2.10;;;15.20;63.60;;;;;;5034230;28;20471;-73
2022/04/17 05:53:21;;;;;;;1.97;1.77;;;15.20;65.30;;;;;;5035629;28;20804;-73
2022/04/17 05:55:50;;;;;;;2.13;2.00;;;15.20;64.90;;;;;;5014048;28;20476;-73
2022/04/17 05:58:18;;;;;;;1.87;1.77;;;15.20;65.50;;;;;;5018709;28;20484;-73
2022/04/17 06:00:47;;;;;;;2.33;2.13;;;15.20;65.30;;;;;;5051995;28;20520;-73
2022/04/17 06:03:15;;;;;;;1.83;1.73;;;15.20;63.60;;;;;;5051140;28;20454;-73
2022/04/17 06:05:44;;;;;;;2.33;2.20;;;15.20;65.90;;;;;;5032648;28;20460;-72
2022/04/17 06:08:14;;;;;;;3.00;2.23;;;15.20;64.70;;;;;;5034123;28;20463;-73
2022/04/17 06:10:42;;;;;;;1.70;1.60;;;15.20;64.60;;;;;;5030440;28;20468;-73
2022/04/17 06:13:10;;;;;;;2.47;1.90;;;15.20;65.60;;;;;;5054027;28;20458;-73
2022/04/17 06:15:40;;;;;;;2.53;2.33;;;15.20;65.00;;;;;;5037091;28;20463;-73
2022/04/17 06:18:09;;;;;;;2.47;1.90;;;15.20;64.30;;;;;;5048890;28;20462;-73
2022/04/17 06:20:37;;;;;;;2.00;1.87;;;15.20;64.30;;;;;;5048870;28;20508;-73
2022/04/17 06:23:05;;;;;;;2.20;2.10;;;15.20;64.30;;;;;;5043844;28;20839;-73
2022/04/17 06:25:35;;;;;;;3.13;2.20;;;15.20;63.50;;;;;;5038562;28;20517;-72
2022/04/17 06:28:03;;;;;;;1.97;1.63;;;15.10;63.50;;;;;;5045726;28;20459;-72
2022/04/17 06:30:31;;;;;;;1.80;1.70;;;15.20;65.40;;;;;;5041819;28;20456;-74
2022/04/17 06:32:59;;;;;;;2.30;2.10;;;15.20;66.00;;;;;;5038215;28;20490;-73
2022/04/17 06:35:27;;;;;;;2.07;1.97;;;15.20;65.00;;;;;;5033362;28;20456;-73
2022/04/17 06:37:57;;;;;;;2.03;1.90;;;15.20;65.40;;;;;;5047947;28;20806;-73
2022/04/17 06:40:27;;;;;;;1.80;1.70;;;15.20;65.10;;;;;;5019313;28;20457;-72
2022/04/17 06:43:00;;;;;;;1.90;1.80;;;15.20;65.20;;;;;;5022504;28;20470;-73
2022/04/17 06:45:29;;;;;;;2.43;2.23;;;15.20;64.40;;;;;;5051602;28;20542;-72
2022/04/17 06:47:57;;;;;;;3.00;2.10;;;15.20;62.00;;;;;;5026088;28;20945;-73
2022/04/17 06:50:25;;;;;;;1.93;1.60;;;15.30;63.20;;;;;;5052730;28;20439;-73
2022/04/17 06:52:53;;;;;;;3.77;2.00;;;15.30;63.50;;;;;;5034280;28;20452;-73
2022/04/17 06:55:22;;;;;;;2.70;2.50;;;15.30;63.40;;;;;;5019311;28;20449;-73
2022/04/17 06:57:51;;;;;;;1.90;1.80;;;15.40;62.50;;;;;;5047764;28;20458;-73
2022/04/17 07:00:22;;;;;;;1.83;1.73;;;15.40;63.10;;;;;;5052800;28;20455;-73
2022/04/17 07:02:51;;;;;;;1.80;1.70;;;15.40;63.10;;;;;;5030327;28;20493;-73
2022/04/17 07:05:19;;;;;;;1.93;1.83;;;15.40;62.60;;;;;;5032401;28;20992;-73
2022/04/17 07:07:47;;;;;;;1.77;1.67;;;15.50;62.90;;;;;;5039577;28;20456;-73
2022/04/17 07:10:15;;;;;;;1.50;1.40;;;15.40;63.60;;;;;;5036765;28;20833;-72
2022/04/17 07:12:44;;;;;;;3.60;1.50;;;15.50;64.20;;;;;;5050829;28;20443;-72
2022/04/17 07:15:13;;;;;;;2.20;1.27;;;15.40;64.20;;;;;;5037615;28;20479;-72
2022/04/17 07:17:45;;;;;;;1.80;1.70;;;15.50;64.60;;;;;;5023753;28;20502;-73
2022/04/17 07:20:15;;;;;;;1.63;1.53;;;15.50;64.70;;;;;;5023425;28;20471;-73
2022/04/17 07:22:44;;;;;;;1.80;1.60;;;15.50;64.50;;;;;;5033036;28;20420;-73
2022/04/17 07:25:17;;;;;;;1.53;1.40;;;15.50;64.70;;;;;;5023825;28;20546;-73
2022/04/17 07:27:47;;;;;;;2.07;1.87;;;15.50;65.00;;;;;;5052614;28;20455;-73
2022/04/17 07:30:16;;;;;;;2.13;1.93;;;15.50;64.70;;;;;;5050438;28;20501;-73
2022/04/17 07:32:48;;;;;;;1.37;1.27;;;15.50;64.90;;;;;;5039926;28;20448;-72
2022/04/17 07:35:18;;;;;;;1.50;1.20;;;15.50;64.90;;;;;;5039088;28;20940;-73
2022/04/17 07:37:50;;;;;;;2.10;1.57;;;15.50;64.80;;;;;;5040159;28;20451;-73
2022/04/17 07:40:21;;;;;;;2.23;1.67;;;15.50;64.80;;;;;;5042375;28;20451;-73
2022/04/17 07:42:50;;;;;;;1.53;1.20;;;15.50;64.80;;;;;;5035215;28;20525;-73
2022/04/17 07:45:20;;;;;;;2.93;1.80;;;15.50;64.80;;;;;;5032173;28;20837;-73
2022/04/17 07:47:51;;;;;;;1.43;1.30;;;15.60;64.80;;;;;;5047931;28;20453;-73
2022/04/17 07:50:21;;;;;;;1.30;1.20;;;15.50;64.50;;;;;;5018092;28;20452;-73
2022/04/17 07:52:49;;;;;;;1.67;1.57;;;15.60;64.70;;;;;;5034577;28;20481;-72
2022/04/17 07:55:18;;;;;;;1.60;1.50;;;15.60;64.30;;;;;;5020095;28;20538;-73
2022/04/17 07:58:00;;;;;;;1.43;1.33;;;15.50;64.10;;;;;;5031253;28;20938;-73
2022/04/17 08:00:32;;;;;;;2.43;1.73;;;15.60;64.30;;;;;;5022277;28;20467;-73
2022/04/17 08:03:45;;;;;;;4.40;2.10;;;15.60;64.20;;;;;;5027432;28;20978;-73
2022/04/17 08:06:16;;;;;;;2.20;1.93;;;15.50;64.40;;;;;;5042977;28;20459;-73
2022/04/17 08:08:45;;;;;;;1.70;1.60;;;15.60;64.30;;;;;;5045341;28;20518;-73
2022/04/17 08:11:13;;;;;;;1.40;1.30;;;15.60;64.20;;;;;;5031147;28;20455;-73
2022/04/17 08:13:42;;;;;;;2.23;2.10;;;15.60;64.40;;;;;;5035290;28;20460;-73
2022/04/17 08:16:10;;;;;;;1.70;1.60;;;15.60;64.40;;;;;;5039464;28;20498;-73
2022/04/17 08:18:43;;;;;;;1.77;1.53;;;15.60;64.20;;;;;;5028321;28;20448;-72
2022/04/17 08:21:11;;;;;;;1.87;1.77;;;15.60;64.20;;;;;;5011907;28;20468;-73
2022/04/17 08:23:39;;;;;;;2.07;1.57;;;15.60;64.10;;;;;;5036710;28;20524;-73
2022/04/17 08:26:07;;;;;;;1.87;1.77;;;15.60;64.10;;;;;;5042519;28;20509;-72
2022/04/17 08:28:36;;;;;;;1.63;1.53;;;15.60;64.10;;;;;;5031552;28;20564;-73
2022/04/17 08:31:04;;;;;;;1.57;1.40;;;15.60;64.20;;;;;;5031081;28;20490;-72
2022/04/17 08:33:32;;;;;;;2.07;1.73;;;15.60;64.00;;;;;;5030631;28;20977;-73
2022/04/17 08:36:03;;;;;;;1.80;1.70;;;15.60;64.00;;;;;;5031130;28;20467;-73
2022/04/17 08:38:31;;;;;;;3.07;1.83;;;15.60;64.10;;;;;;5030073;28;20471;-73
2022/04/17 08:41:02;;;;;;;1.60;1.40;;;15.60;64.00;;;;;;5011215;28;20457;-73
2022/04/17 08:43:32;;;;;;;1.87;1.77;;;15.60;63.90;;;;;;5024504;28;21014;-72
2022/04/17 08:46:00;;;;;;;2.07;1.87;;;15.50;63.60;;;;;;5030845;28;21051;-72
2022/04/17 08:48:29;;;;;;;2.15;1.80;;;15.60;63.00;;;;;;5013569;28;20526;-73
2022/04/17 08:50:58;;;;;;;3.33;2.33;;;15.70;62.50;;;;;;5036406;28;20270;-72
2022/04/17 08:53:28;;;;;;;2.67;2.10;;;15.80;59.20;;;;;;5043454;28;20459;-73
2022/04/17 08:55:56;;;;;;;1.90;1.70;;;15.80;57.20;;;;;;5045171;28;20502;-72
2022/04/17 08:58:25;;;;;;;2.67;2.47;;;15.90;57.50;;;;;;5044441;28;20431;-73
2022/04/17 09:00:53;;;;;;;2.20;1.80;;;15.90;54.60;;;;;;5045432;28;20530;-73
2022/04/17 09:03:21;;;;;;;2.20;2.00;;;15.90;54.60;;;;;;5034290;28;20507;-73
2022/04/17 09:05:50;;;;;;;2.53;1.90;;;15.90;54.80;;;;;;5029946;28;20463;-73
2022/04/17 09:08:22;;;;;;;1.97;1.87;;;15.90;53.90;;;;;;5041819;28;20498;-71
2022/04/17 09:10:56;;;;;;;2.50;2.30;;;15.90;54.60;;;;;;5028311;28;20460;-73
2022/04/17 09:13:29;;;;;;;2.17;1.83;;;15.80;54.30;;;;;;5031052;28;20453;-72
2022/04/17 09:15:58;;;;;;;2.07;1.90;;;15.80;53.90;;;;;;5030006;28;20491;-73
2022/04/17 09:18:31;;;;;;;1.97;1.80;;;15.80;52.60;;;;;;5011420;28;20432;-73
2022/04/17 09:21:01;;;;;;;2.30;2.10;;;15.80;53.80;;;;;;5026861;28;21012;-73
2022/04/17 09:23:36;;;;;;;1.80;1.70;;;15.80;53.10;;;;;;5030915;28;20459;-73
2022/04/17 09:26:08;;;;;;;2.03;1.60;;;15.80;53.60;;;;;;5047152;28;20472;-73
2022/04/17 09:28:37;;;;;;;2.67;2.27;;;15.80;53.20;;;;;;5038493;28;20996;-73
2022/04/17 09:31:12;;;;;;;2.10;1.90;;;15.80;52.70;;;;;;5030533;28;20525;-73
2022/04/17 09:33:42;;;;;;;1.87;1.77;;;15.80;51.60;;;;;;5014511;28;20478;-74
2022/04/17 09:36:12;;;;;;;2.00;1.80;;;15.80;52.50;;;;;;5050313;28;20482;-73
2022/04/17 09:38:43;;;;;;;3.00;2.00;;;15.80;52.50;;;;;;5044908;28;20449;-72
2022/04/17 09:41:13;;;;;;;3.10;1.70;;;15.80;51.40;;;;;;5014277;28;21041;-73
2022/04/17 09:43:43;;;;;;;2.23;2.00;;;15.80;52.10;;;;;;5047019;28;20491;-73
2022/04/17 09:46:12;;;;;;;2.60;1.77;;;15.80;50.10;;;;;;5039861;28;20526;-73
2022/04/17 09:48:43;;;;;;;2.07;1.80;;;15.80;52.10;;;;;;5033693;28;20459;-73
2022/04/17 09:51:22;;;;;;;1.83;1.57;;;15.70;53.20;;;;;;5033570;28;20568;-73
2022/04/17 09:53:58;;;;;;;3.13;1.90;;;15.70;53.60;;;;;;5043246;28;20456;-73
2022/04/17 09:56:35;;;;;;;2.17;1.90;;;15.70;54.40;;;;;;5038999;28;20467;-73
2022/04/17 09:59:16;;;;;;;2.10;1.30;;;15.60;55.20;;;;;;5038559;28;20443;-73
2022/04/17 10:01:46;;;;;;;1.90;1.80;;;15.60;55.70;;;;;;5047842;28;20499;-72
2022/04/17 10:04:16;;;;;;;3.10;1.83;;;15.60;56.10;;;;;;5039115;28;20467;-74
2022/04/17 10:06:44;;;;;;;1.83;1.70;;;15.50;56.50;;;;;;5034881;28;20468;-73
2022/04/17 10:09:13;;;;;;;1.50;1.40;;;15.50;56.40;;;;;;5041401;28;20944;-73
2022/04/17 10:11:43;;;;;;;1.90;1.80;;;15.50;56.70;;;;;;5034222;28;20518;-73
2022/04/17 10:14:11;;;;;;;3.00;2.00;;;15.50;56.90;;;;;;5033817;28;20881;-73
2022/04/17 10:16:41;;;;;;;1.90;1.70;;;15.50;56.90;;;;;;5033821;28;20857;-74
2022/04/17 10:19:12;;;;;;;1.50;1.40;;;15.50;57.20;;;;;;5035027;28;20505;-73
2022/04/17 10:21:41;;;;;;;1.83;1.50;;;15.50;57.00;;;;;;5052274;28;20474;-73
2022/04/17 10:24:14;;;;;;;2.33;1.60;;;15.50;57.60;;;;;;5026959;28;20461;-73
2022/04/17 10:26:47;;;;;;;1.93;1.77;;;15.50;57.50;;;;;;5032982;28;20463;-73
2022/04/17 10:29:21;;;;;;;2.43;1.67;;;15.50;57.80;;;;;;5033636;28;20436;-73
2022/04/17 10:32:15;;;;;;;1.70;1.53;;;15.50;57.10;;;;;;5052274;28;20458;-73
2022/04/17 10:35:16;;;;;;;1.63;1.53;;;15.50;57.10;;;;;;5022721;28;20531;-73
2022/04/17 10:38:33;;;;;;;1.80;1.50;;;15.50;57.20;;;;;;5040497;28;20458;-73
2022/04/17 10:41:07;;;;;;;1.77;1.67;;;15.50;57.20;;;;;;5015931;28;20473;-73
2022/04/17 10:43:57;;;;;;;2.20;1.63;;;15.50;58.00;;;;;;5041357;28;20439;-73
2022/04/17 10:46:26;;;;;;;1.50;1.40;;;15.50;58.20;;;;;;5045555;28;20489;-72
2022/04/17 10:48:55;;;;;;;1.97;1.87;;;15.50;58.30;;;;;;5038379;28;20811;-73
2022/04/17 10:51:25;;;;;;;1.57;1.27;;;15.40;58.10;;;;;;5031877;28;20833;-73
2022/04/17 10:54:00;;;;;;;2.13;1.83;;;15.50;58.40;;;;;;5033805;28;20453;-73
2022/04/17 10:56:28;;;;;;;2.97;1.67;;;15.50;58.50;;;;;;5030978;28;20482;-73
2022/04/17 10:59:02;;;;;;;3.40;1.90;;;15.50;52.90;;;;;;5032861;28;21006;-73
2022/04/17 11:02:01;;;;;;;1.83;1.73;;;15.50;53.20;;;;;;5013091;28;20464;-70
2022/04/17 11:04:31;;;;;;;2.37;2.00;;;15.60;52.10;;;;;;5021651;28;20470;-72
2022/04/17 11:07:22;;;;;;;2.20;1.90;;;15.60;50.00;;;;;;5052413;28;20467;-72
2022/04/17 11:10:06;;;;;;;1.80;1.67;;;15.60;49.40;;;;;;5042433;28;20463;-72
2022/04/17 11:12:48;;;;;;;2.73;1.63;;;15.70;47.60;;;;;;5052948;28;20959;-72
2022/04/17 11:15:28;;;;;;;2.13;1.60;;;15.70;46.20;;;;;;5052329;28;20536;-73
2022/04/17 11:18:02;;;;;;;1.60;1.50;;;15.70;47.30;;;;;;5032279;28;20472;-73
2022/04/17 11:20:31;;;;;;;2.17;1.80;;;15.70;46.40;;;;;;5046985;28;20460;-74
2022/04/17 11:22:59;;;;;;;2.63;1.70;;;15.70;45.40;;;;;;5046560;28;20431;-71
2022/04/17 11:25:29;;;;;;;2.70;1.87;;;15.70;46.40;;;;;;5017074;28;20939;-71
2022/04/17 11:28:02;;;;;;;2.30;1.47;;;15.70;46.40;;;;;;5028650;28;20432;-73
2022/04/17 11:30:54;;;;;;;2.20;1.77;;;15.70;46.80;;;;;;5047791;28;20558;-72
2022/04/17 11:33:23;;;;;;;1.70;1.50;;;15.70;48.10;;;;;;5038973;28;20463;-72
2022/04/17 11:35:52;;;;;;;2.33;2.13;;;15.70;44.40;;;;;;5040220;28;20946;-74
2022/04/17 11:38:21;;;;;;;2.10;1.90;;;15.70;44.10;;;;;;5035728;28;20435;-72
2022/04/17 11:40:50;;;;;;;3.53;1.63;;;15.70;44.30;;;;;;5032265;28;20460;-73
2022/04/17 11:43:19;;;;;;;1.93;1.43;;;15.70;45.70;;;;;;5032775;28;20483;-73
2022/04/17 11:45:48;;;;;;;1.60;1.50;;;15.70;46.80;;;;;;5048776;28;20534;-73
2022/04/17 11:48:19;;;;;;;1.97;1.40;;;15.60;47.60;;;;;;5031581;28;20444;-73
2022/04/17 11:50:53;;;;;;;2.10;1.13;;;15.60;48.60;;;;;;5039906;28;20488;-73
2022/04/17 11:53:21;;;;;;;2.30;1.93;;;15.60;49.70;;;;;;5049573;28;20483;-73
2022/04/17 11:55:49;;;;;;;1.53;1.43;;;15.60;49.80;;;;;;5022498;28;20981;-73
2022/04/17 11:58:24;;;;;;;1.47;1.37;;;15.50;49.60;;;;;;5038335;28;20440;-73
2022/04/17 12:00:56;;;;;;;1.67;1.57;;;15.50;50.20;;;;;;5031059;28;20829;-73
2022/04/17 12:03:35;;;;;;;1.50;1.40;;;15.50;50.50;;;;;;5046362;28;20467;-73
2022/04/17 12:06:04;;;;;;;2.33;1.50;;;15.50;50.60;;;;;;5051471;28;20457;-73
2022/04/17 12:08:34;;;;;;;2.00;1.47;;;15.50;51.20;;;;;;5033135;28;20451;-73
2022/04/17 12:11:05;;;;;;;2.00;1.80;;;15.50;51.10;;;;;;5032723;28;20482;-73
2022/04/17 12:13:33;;;;;;;1.50;1.40;;;15.50;52.10;;;;;;5042865;28;20500;-72
2022/04/17 12:16:03;;;;;;;1.30;1.20;;;15.50;51.40;;;;;;5033047;28;20487;-73
2022/04/17 12:18:31;;;;;;;2.17;1.23;;;15.50;51.20;;;;;;5038667;28;20439;-73
2022/04/17 12:21:03;;;;;;;2.80;1.40;;;15.50;51.70;;;;;;5051305;28;21014;-73
2022/04/17 12:23:32;;;;;;;1.77;1.67;;;15.50;51.40;;;;;;5038277;28;21022;-73
2022/04/17 12:26:05;;;;;;;1.17;0.90;;;15.50;52.30;;;;;;5022062;28;20464;-73
2022/04/17 12:28:33;;;;;;;1.57;1.27;;;15.50;52.90;;;;;;5031823;28;20459;-73
2022/04/17 12:31:02;;;;;;;2.23;1.43;;;15.50;52.90;;;;;;5029952;28;21027;-73
2022/04/17 12:33:30;;;;;;;1.43;1.20;;;15.50;52.40;;;;;;5016516;28;20479;-73
2022/04/17 12:36:07;;;;;;;1.90;1.30;;;15.50;53.10;;;;;;5028668;28;20893;-74
2022/04/17 12:38:37;;;;;;;1.40;1.30;;;15.50;53.10;;;;;;5049065;28;20439;-73
2022/04/17 12:41:19;;;;;;;1.90;1.57;;;15.50;52.90;;;;;;5011648;28;20889;-73
2022/04/17 12:43:50;;;;;;;1.20;1.10;;;15.50;53.10;;;;;;5032206;28;20818;-73
2022/04/17 12:46:28;;;;;;;1.30;1.20;;;15.50;53.60;;;;;;5034508;28;20461;-73
2022/04/17 12:49:07;;;;;;;1.57;1.23;;;15.50;53.60;;;;;;5025756;28;20500;-72
2022/04/17 12:51:38;;;;;;;1.47;1.37;;;15.50;53.70;;;;;;5041582;28;20815;-73
2022/04/17 12:54:09;;;;;;;1.83;1.30;;;15.50;55.10;;;;;;5025086;28;21049;-73
2022/04/17 12:56:38;;;;;;;1.43;1.33;;;15.50;54.10;;;;;;5032919;28;20458;-73
2022/04/17 12:59:08;;;;;;;1.70;1.23;;;15.50;54.20;;;;;;5036332;28;20436;-73
2022/04/17 13:01:37;;;;;;;1.00;0.90;;;15.60;54.30;;;;;;5033492;28;20595;-73
2022/04/17 13:04:10;;;;;;;1.40;1.30;;;15.50;53.60;;;;;;5024925;28;20507;-73
2022/04/17 13:06:40;;;;;;;2.13;1.30;;;15.50;54.00;;;;;;5033684;28;20467;-73
2022/04/17 13:09:13;;;;;;;1.43;1.33;;;15.50;53.90;;;;;;5040177;28;20781;-73
2022/04/17 13:11:44;;;;;;;1.37;1.13;;;15.60;54.20;;;;;;5037026;28;21000;-73
2022/04/17 13:14:12;;;;;;;1.10;1.00;;;15.50;54.20;;;;;;5047085;28;20521;-73
2022/04/17 13:16:49;;;;;;;1.70;1.20;;;15.60;55.00;;;;;;5039684;28;20506;-73
2022/04/17 13:19:18;;;;;;;2.30;1.07;;;15.60;55.00;;;;;;5048217;28;20438;-74